Latest Coastal Weather Observations for Adele Island

IDW60701

Issued at 12:42 am WST Monday 2 March 2015 (issued every 10 minutes, with the page automatically refreshed every 10 minutes)

About coastal observations | Map of coastal stations | Coastal observations for WA | Marine services | Other Formats
Station Details ID: 200735 Name: ADELE ISLAND Lat: -15.51 Lon: 123.16 Height: 4.6 m
Data from the previous 72 hours. | See also: Recent months for locations in Western Australia
Date/Time
WST
Temp

°C
Wind Pressure Rain
since 9am
mm
Weather Cloud Vis
km
Sea
Height
m
Swell
Dir
 
Speed
knots
Gust
knots
hPa Trend Height
m
Period
s
Dir
02/12:30am 28.8 SW 9 11 1007.1 - - - - - - - - -
02/12:00am 28.8 WSW 10 13 1007.3 - - - - - - - - -
 
Date/Time
WST
Temp

°C
Wind Pressure Rain
since 9am
mm
Weather Cloud Vis
km
Sea
Height
m
Swell
Dir
 
Speed
knots
Gust
knots
hPa Trend Height
m
Period
s
Dir
01/11:30pm 28.8 WSW 10 12 1007.4 - - - - - - - - -
01/11:00pm 28.7 SW 10 12 1007.8 - - - - - - - - -
01/10:30pm 28.8 SW 7 9 1008.2 - - - - - - - - -
01/10:00pm 28.9 SSW 9 11 1008.0 - - - - - - - - -
01/09:30pm 28.8 WSW 8 9 1008.2 - - - - - - - - -
01/09:00pm 29.0 W 8 9 1007.8 - - - - - - - - -
01/08:30pm 28.8 W 6 8 1007.3 - - - - - - - - -
01/08:00pm 28.7 WSW 8 11 1007.2 - - - - - - - - -
01/07:30pm 28.9 SSW 7 9 1007.0 - - - - - - - - -
01/07:00pm 28.7 SSW 9 11 1007.0 - - - - - - - - -
01/06:30pm 28.8 SSW 6 9 1006.8 - - - - - - - - -
01/06:00pm 28.7 WSW 6 7 1006.6 - - - - - - - - -
01/05:30pm 28.8 WSW 5 6 1006.5 - - - - - - - - -
01/05:00pm 28.8 SW 8 11 1005.9 - - - - - - - - -
01/04:30pm 28.1 SSW 13 16 1004.8 - - - - - - - - -
01/04:00pm 27.6 SW 10 13 1005.6 - - - - - - - - -
01/03:30pm 27.6 SSE 5 6 1006.3 - - - - - - - - -
01/03:00pm 28.1 NNE 1 3 1006.7 - - - - - - - - -
01/02:30pm 27.9 NE 4 5 1007.2 - - - - - - - - -
01/02:00pm 27.9 NE 5 9 1007.6 - - - - - - - - -
01/01:30pm 28.8 SSW 8 11 1007.2 - - - - - - - - -
01/01:00pm 25.8 SE 5 7 1007.0 - - - - - - - - -
01/12:30pm 24.1 SSE 11 13 1007.8 - - - - - - - - -
01/12:10pm 24.0 S 20 26 1008.3 - - - - - - - - -
01/12:00pm 24.9 SSW 21 26 1007.5 - - - - - - - - -
01/11:37am 28.3 SW 17 24 1007.8 - - - - - - - - -
01/11:30am 30.9 WSW 15 19 1008.0 - - - - - - - - -
01/11:00am 30.8 W 11 15 1008.3 - - - - - - - - -
01/10:30am 30.1 WSW 14 16 1008.7 - - - - - - - - -
01/10:00am 30.2 WSW 13 16 1008.9 - - - - - - - - -
01/09:30am 29.9 SW 13 16 1008.6 - - - - - - - - -
01/09:00am 30.2 SW 11 14 1008.5 - - - - - - - - -
01/08:30am 29.7 SW 10 12 1008.5 - - - - - - - - -
01/08:00am 29.3 SW 8 10 1008.8 - - - - - - - - -
01/07:30am 29.3 WSW 8 11 1008.6 - - - - - - - - -
01/07:00am 29.4 WSW 11 14 1008.1 - - - - - - - - -
01/06:30am 29.1 WSW 11 12 1007.9 - - - - - - - - -
01/06:00am 28.9 SW 11 13 1007.6 - - - - - - - - -
01/05:30am 28.8 WSW 12 15 1007.0 - - - - - - - - -
01/05:00am 28.9 W 11 14 1007.1 - - - - - - - - -
01/04:30am 28.9 W 12 14 1007.0 - - - - - - - - -
01/04:00am 28.8 W 12 15 1006.2 - - - - - - - - -
01/03:30am 28.9 W 12 14 1006.2 - - - - - - - - -
01/03:00am 28.7 WNW 10 13 1006.3 - - - - - - - - -
01/02:30am 29.0 WNW 10 13 1006.6 - - - - - - - - -
01/02:00am 29.0 WNW 9 11 1006.5 - - - - - - - - -
01/01:30am 28.9 WNW 9 12 1006.7 - - - - - - - - -
01/01:00am 29.0 WNW 11 14 1006.5 - - - - - - - - -
01/12:30am 28.9 NW 10 11 1006.5 - - - - - - - - -
01/12:00am 28.8 NW 9 12 1006.7 - - - - - - - - -
 
Date/Time
WST
Temp

°C
Wind Pressure Rain
since 9am
mm
Weather Cloud Vis
km
Sea
Height
m
Swell
Dir
 
Speed
knots
Gust
knots
hPa Trend Height
m
Period
s
Dir
28/11:30pm 29.0 NW 9 11 1007.4 - - - - - - - - -
28/11:00pm 29.0 NW 7 8 1007.9 - - - - - - - - -
28/10:30pm 29.2 WNW 7 9 1008.1 - - - - - - - - -
28/10:00pm 29.1 WNW 7 8 1008.1 - - - - - - - - -
28/09:30pm 29.3 WNW 5 7 1008.4 - - - - - - - - -
28/09:00pm 29.2 WSW 7 9 1008.3 - - - - - - - - -
28/08:30pm 29.1 W 6 7 1008.1 - - - - - - - - -
28/08:00pm 29.3 WNW 6 8 1007.6 - - - - - - - - -
28/07:30pm 29.2 W 6 8 1007.0 - - - - - - - - -
28/07:00pm 29.2 WNW 6 8 1006.8 - - - - - - - - -
28/06:30pm 29.2 WNW 7 9 1006.6 - - - - - - - - -
28/06:00pm 29.4 W 5 7 1007.0 - - - - - - - - -
28/05:30pm 29.4 W 7 9 1006.8 - - - - - - - - -
28/05:00pm 29.5 WNW 6 9 1006.4 - - - - - - - - -
28/04:30pm 29.7 W 8 11 1005.4 - - - - - - - - -
28/04:00pm 30.4 WNW 8 10 1005.6 - - - - - - - - -
28/03:30pm 30.8 WNW 9 12 1005.4 - - - - - - - - -
28/03:00pm 30.5 WNW 9 11 1005.4 - - - - - - - - -
28/02:30pm 30.7 WNW 8 11 1005.9 - - - - - - - - -
28/02:00pm 30.3 W 9 11 1006.0 - - - - - - - - -
28/01:30pm 30.2 W 7 10 1006.5 - - - - - - - - -
28/01:00pm 30.1 WSW 8 9 1006.9 - - - - - - - - -
28/12:30pm 30.4 W 7 9 1007.1 - - - - - - - - -
28/12:00pm 30.1 WSW 8 10 1007.8 - - - - - - - - -
28/11:30am 30.2 W 7 9 1008.1 - - - - - - - - -
28/11:00am 30.0 WSW 5 8 1008.5 - - - - - - - - -
28/10:30am 30.5 SSW 7 8 1008.9 - - - - - - - - -
28/10:00am 29.1 WSW 8 10 1009.1 - - - - - - - - -
28/09:30am 29.4 NW 5 6 1009.2 - - - - - - - - -
28/09:00am 29.4 N 5 8 1009.0 - - - - - - - - -
28/08:30am 29.7 NNW 5 7 1009.0 - - - - - - - - -
28/08:00am 29.4 N 5 7 1008.8 - - - - - - - - -
28/07:30am 29.1 NW 5 7 1008.6 - - - - - - - - -
28/07:00am 29.3 NNW 6 7 1008.1 - - - - - - - - -
28/06:30am 28.8 NW 6 7 1007.7 - - - - - - - - -
28/06:00am 28.4 W 7 10 1007.4 - - - - - - - - -
28/05:30am 28.7 WSW 7 9 1007.1 - - - - - - - - -
28/05:00am 28.6 WSW 7 8 1006.9 - - - - - - - - -
28/04:30am 28.6 WSW 9 11 1006.7 - - - - - - - - -
28/04:00am 28.5 W 8 9 1006.5 - - - - - - - - -
28/03:30am 28.4 W 8 11 1006.3 - - - - - - - - -
28/03:00am 28.5 W 9 11 1006.3 - - - - - - - - -
28/02:30am 28.6 WNW 9 11 1006.2 - - - - - - - - -
28/02:00am 28.5 WNW 8 11 1006.2 - - - - - - - - -
28/01:30am 28.6 WNW 8 9 1006.5 - - - - - - - - -
28/01:00am 28.9 WNW 7 9 1007.0 - - - - - - - - -
28/12:30am 28.8 CALM 0 2 1007.1 - - - - - - - - -
28/12:00am 28.8 NNE 1 3 1007.6 - - - - - - - - -
 
Date/Time
WST
Temp

°C
Wind Pressure Rain
since 9am
mm
Weather Cloud Vis
km
Sea
Height
m
Swell
Dir
 
Speed
knots
Gust
knots
hPa Trend Height
m
Period
s
Dir
27/11:30pm 28.8 NNE 1 4 1007.8 - - - - - - - - -
27/11:00pm 29.1 NNE 2 3 1007.9 - - - - - - - - -
27/10:30pm 29.0 N 5 7 1007.9 - - - - - - - - -
27/10:00pm 29.2 N 6 7 1008.2 - - - - - - - - -
27/09:30pm 29.1 NNW 7 8 1008.0 - - - - - - - - -
27/09:00pm 29.2 NNW 9 10 1008.0 - - - - - - - - -
27/08:30pm 29.2 N 4 6 1007.9 - - - - - - - - -
27/08:00pm 29.2 N 3 5 1007.5 - - - - - - - - -
27/07:30pm 29.0 CALM 0 0 1007.1 - - - - - - - - -
27/07:00pm 29.0 CALM 0 0 1006.6 - - - - - - - - -
27/06:30pm 29.0 NNE 3 5 1006.1 - - - - - - - - -
27/06:00pm 29.0 NNE 3 4 1005.7 - - - - - - - - -
27/05:30pm 29.0 N 3 5 1005.5 - - - - - - - - -
27/05:00pm 29.3 NNE 4 5 1005.3 - - - - - - - - -
27/04:30pm 29.4 NNE 4 5 1005.0 - - - - - - - - -
27/04:00pm 29.4 NNE 3 5 1005.1 - - - - - - - - -
27/03:30pm 29.4 N 4 5 1005.2 - - - - - - - - -
27/03:00pm 29.4 NNE 3 5 1005.1 - - - - - - - - -
27/02:30pm 29.5 N 5 7 1005.4 - - - - - - - - -
27/02:00pm 29.9 N 5 7 1005.4 - - - - - - - - -
27/01:30pm 29.7 NW 6 7 1005.5 - - - - - - - - -
27/01:00pm 30.6 NW 6 7 1006.0 - - - - - - - - -
27/12:30pm 29.6 W 5 9 1006.6 - - - - - - - - -
27/12:00pm 28.9 SSE 7 9 1007.4 - - - - - - - - -
27/11:30am 29.5 NNW 4 6 1007.7 - - - - - - - - -
27/11:00am 29.5 NNW 5 7 1007.8 - - - - - - - - -
27/10:30am 29.3 NW 6 8 1008.0 - - - - - - - - -
27/10:00am 29.5 NW 6 9 1007.9 - - - - - - - - -
27/09:30am 30.1 NW 7 8 1007.9 - - - - - - - - -
27/09:00am 29.6 NW 6 8 1008.1 - - - - - - - - -
27/08:30am 29.8 NNW 6 7 1008.1 - - - - - - - - -
27/08:00am 29.5 NW 7 9 1007.9 - - - - - - - - -
27/07:30am 29.0 WNW 8 9 1007.7 - - - - - - - - -
27/07:00am 29.1 NNW 8 9 1007.4 - - - - - - - - -
27/06:30am 28.9 NNW 9 11 1007.2 - - - - - - - - -
27/06:00am 28.8 N 8 9 1007.0 - - - - - - - - -
27/05:30am 28.8 NNW 7 9 1006.4 - - - - - - - - -
27/05:00am 28.9 N 8 9 1005.8 - - - - - - - - -
27/04:30am 28.8 N 7 8 1005.7 - - - - - - - - -
27/04:00am 28.7 N 6 7 1005.4 - - - - - - - - -
27/03:30am 28.7 N 6 7 1005.2 - - - - - - - - -
27/03:00am 28.8 N 5 7 1004.9 - - - - - - - - -
27/02:30am 28.6 NNW 5 7 1004.8 - - - - - - - - -
27/02:00am 28.6 N 7 8 1005.1 - - - - - - - - -
27/01:30am 28.4 N 6 7 1005.4 - - - - - - - - -
27/01:00am 28.5 N 8 9 1005.9 - - - - - - - - -

Other Formats:

Comma delimited format used in spreadsheet applications
http://www.bom.gov.au/fwo/IDW60701/IDW60701.94210.axf

JavaScript Object Notation format (JSON) in row-major order
http://www.bom.gov.au/fwo/IDW60701/IDW60701.94210.json